Melody — V7OM3 — position and weather

sailwx.info

Track history (hours):
 
Tides and Currents Weather Stations Pressure Air Temp Water Temp Dewpoint Dewpoint Depression Visibility Wind Speed Wind Dir Waves Ship Positions

Melody

Last reported at 2018-Jun-18 22:50 UTC. Time now 2018-Jun-20 07:07 UTC.
Position N 37°12' W 009°45'.

Length 183 m; draft 11.5 m.

Type: Tanker. MMSI: 538003113.

Date/timePositionNaut miles runAvg speedWind from/ knotsBaromVisibWave heightAir tempDewpointWater temp
2018-Jun-18 22:50N 37°12' W 009°45'413.0
2018-Jun-18 22:30N 37°17' W 009°46'713.0
2018-Jun-18 22:00N 37°23' W 009°48'613.0
2018-Jun-18 21:30N 37°29' W 009°50'712.4
2018-Jun-18 20:59N 37°36' W 009°52'612.6
2018-Jun-18 20:31N 37°41' W 009°55'612.5
2018-Jun-18 20:01N 37°46' W 009°59'611.6
2018-Jun-18 19:31N 37°52' W 009°57'612.4
2018-Jun-18 19:01N 37°58' W 009°59'612.7
2018-Jun-18 18:31N 38°04' W 010°00'612.4
2018-Jun-18 18:00N 38°11' W 010°02'612.3
2018-Jun-18 17:31N 38°16' W 010°04'612.1
2018-Jun-18 17:00N 38°22' W 010°06'612.1
2018-Jun-18 16:30N 38°28' W 010°07'612.6
2018-Jun-18 16:00N 38°34' W 010°09'612.4
2018-Jun-18 15:30N 38°40' W 010°11'612.6
2018-Jun-18 15:00N 38°47' W 010°11'612.7
2018-Jun-18 14:30N 38°53' W 010°12'612.3
2018-Jun-18 14:00N 38°59' W 010°12'612.4
2018-Jun-18 13:30N 39°05' W 010°12'612.6
2018-Jun-18 13:00N 39°12' W 010°12'612.6
2018-Jun-18 12:30N 39°18' W 010°11'612.7
2018-Jun-18 12:00N 39°25' W 010°11'612.7
2018-Jun-18 11:30N 39°31' W 010°12'612.3
2018-Jun-18 10:59N 39°37' W 010°12'712.5
2018-Jun-18 10:27N 39°44' W 010°11'712.4
2018-Jun-18 09:53N 39°51' W 010°12'612.7
2018-Jun-18 09:26N 39°57' W 010°12'  
2018-Jun-15 23:37N 49°48' W 003°25'212.4
2018-Jun-15 23:27N 49°49' W 003°23'512.1
2018-Jun-15 23:01N 49°52' W 003°15'611.4
2018-Jun-15 22:31N 49°55' W 003°08'510.7
2018-Jun-15 22:01N 49°58' W 003°01'510.0
2018-Jun-15 21:31N 49°59' W 002°54'5 9.6
2018-Jun-15 21:00N 50°01' W 002°46'5 9.4
2018-Jun-15 20:25N 50°02' W 002°38'8 9.4
2018-Jun-15 19:33N 50°04' W 002°26'2911.5
2018-Jun-15 17:03N 50°12' W 001°43'114.1
2018-Jun-15 16:58N 50°12' W 001°41'1414.9
2018-Jun-15 16:00N 50°16' W 001°19'1015.8
2018-Jun-15 15:23N 50°18' W 001°04'615.9
2018-Jun-15 15:00N 50°20' W 000°55'815.1
2018-Jun-15 14:30N 50°22' W 000°44'714.7
2018-Jun-15 14:00N 50°24' W 000°33'714.0
2018-Jun-15 13:31N 50°26' W 000°22'713.3
2018-Jun-15 13:00N 50°28' W 000°12'1312.3
2018-Jun-15 11:57N 50°31' E 000°07'611.6
2018-Jun-15 11:28N 50°33' E 000°16'511.1
2018-Jun-15 11:00N 50°34' E 000°23'510.7
2018-Jun-15 10:30N 50°36' E 000°32'510.5
2018-Jun-15 10:01N 50°38' E 000°39'611.1
2018-Jun-15 09:31N 50°41' E 000°46'611.9
2018-Jun-15 09:01N 50°44' E 000°54'712.9
2018-Jun-15 08:30N 50°48' E 001°03'713.9
2018-Jun-15 08:01N 50°52' E 001°12'815.2
2018-Jun-15 07:31N 50°57' E 001°21'815.8
2018-Jun-15 07:00N 51°03' E 001°29'815.2
2018-Jun-15 06:30N 51°08' E 001°37'714.1
2018-Jun-15 06:00N 51°13' E 001°45'713.2
2018-Jun-15 05:30N 51°19' E 001°50'612.3
2018-Jun-15 05:01N 51°24' E 001°55'611.5
2018-Jun-15 04:31N 51°29' E 001°60'611.1
2018-Jun-15 04:00N 51°34' E 002°05'510.9
2018-Jun-15 03:31N 51°38' E 002°11'510.3
2018-Jun-15 03:00N 51°42' E 002°17'510.5
2018-Jun-15 02:30N 51°45' E 002°23'510.6
2018-Jun-15 01:59N 51°49' E 002°29'510.7
2018-Jun-15 01:29N 51°53' E 002°35'511.1
2018-Jun-15 01:00N 51°57' E 002°42'611.6
2018-Jun-15 00:29N 52°01' E 002°48'611.3
2018-Jun-14 23:59N 52°02' E 002°57'712.4
2018-Jun-14 23:23N 52°03' E 003°09'512.7
2018-Jun-14 23:00N 52°03' E 003°17'712.7
2018-Jun-14 22:26N 52°03' E 003°29'612.9
2018-Jun-14 22:00N 52°04' E 003°38'612.4
2018-Jun-14 21:30N 52°04' E 003°48'4 7.8
2018-Jun-14 21:00N 52°03' E 003°53'5 9.4
2018-Jun-14 20:30N 52°01' E 004°00'611.4
2018-Jun-14 20:00N 51°58' E 004°09'611.5
2018-Jun-14 19:30N 51°54' E 004°16'4 7.0
2018-Jun-14 18:59N 51°54' E 004°22'0 0.0
2018-Jun-14 18:29N 51°54' E 004°22'0 0.0
2018-Jun-14 17:59N 51°54' E 004°22'0 0.0
2018-Jun-14 17:30N 51°54' E 004°22'0 0.0
2018-Jun-14 17:00N 51°54' E 004°22'0 0.0
2018-Jun-14 16:30N 51°54' E 004°22'0 0.0
2018-Jun-14 16:00N 51°54' E 004°22'0 0.0
2018-Jun-14 15:28N 51°54' E 004°22'0 0.0
2018-Jun-14 14:58N 51°54' E 004°22'0 0.0
2018-Jun-14 14:28N 51°54' E 004°22'0 0.0
2018-Jun-14 13:58N 51°54' E 004°22'0 0.0
2018-Jun-14 13:29N 51°54' E 004°22'0 0.0
2018-Jun-14 12:59N 51°54' E 004°22'0 0.0
2018-Jun-14 12:29N 51°54' E 004°22'0 0.0
2018-Jun-14 11:59N 51°54' E 004°22'0 0.0
2018-Jun-14 11:30N 51°54' E 004°22'0 0.0
2018-Jun-14 11:00N 51°54' E 004°22'0 0.0
2018-Jun-14 10:30N 51°54' E 004°22'0 0.0
2018-Jun-14 10:00N 51°54' E 004°22'0 0.0
2018-Jun-14 09:28N 51°54' E 004°22'0 0.0
2018-Jun-14 08:58N 51°54' E 004°22'0 0.0
2018-Jun-14 08:28N 51°54' E 004°22'0 0.0
2018-Jun-14 07:58N 51°54' E 004°22'0 0.0
2018-Jun-14 07:29N 51°54' E 004°22'0 0.0
2018-Jun-14 06:59N 51°54' E 004°22'0 0.0
2018-Jun-14 06:29N 51°54' E 004°22'0 0.0
2018-Jun-14 05:59N 51°54' E 004°22'0 0.0
2018-Jun-14 05:30N 51°54' E 004°22'0 0.0
2018-Jun-14 05:00N 51°54' E 004°22'0 0.0
2018-Jun-14 04:30N 51°54' E 004°22'0 0.0
2018-Jun-14 04:00N 51°54' E 004°22'0 0.0
2018-Jun-14 03:30N 51°54' E 004°22'0 0.0
2018-Jun-14 02:58N 51°54' E 004°22'0 0.0
2018-Jun-14 02:28N 51°54' E 004°22'0 0.0
2018-Jun-14 01:58N 51°54' E 004°22'0 0.0
2018-Jun-14 01:29N 51°54' E 004°22'0 0.0
2018-Jun-14 00:59N 51°54' E 004°22'0 0.0
2018-Jun-14 00:29N 51°54' E 004°22'0 0.0
2018-Jun-13 23:56N 51°54' E 004°22'0 0.0
2018-Jun-13 23:30N 51°54' E 004°22'0 0.0
2018-Jun-13 23:00N 51°54' E 004°22'0 0.0
2018-Jun-13 22:30N 51°54' E 004°22'0 0.0
2018-Jun-13 22:00N 51°54' E 004°22'0 0.0
2018-Jun-13 21:28N 51°54' E 004°22'0 0.0
2018-Jun-13 20:58N 51°54' E 004°22'0 0.0
2018-Jun-13 20:28N 51°54' E 004°22'0 0.0
2018-Jun-13 19:58N 51°54' E 004°22'0 0.0
2018-Jun-13 19:29N 51°54' E 004°22'0 0.0
2018-Jun-13 18:59N 51°54' E 004°22'0 0.0
2018-Jun-13 18:29N 51°54' E 004°22'0 0.0
2018-Jun-13 18:00N 51°54' E 004°22'0 0.0
2018-Jun-13 17:30N 51°54' E 004°22'0 0.0
2018-Jun-13 17:00N 51°54' E 004°22'0 0.0
2018-Jun-13 16:30N 51°54' E 004°22'0 0.0
2018-Jun-13 15:58N 51°54' E 004°22'0 0.0
2018-Jun-13 15:25N 51°54' E 004°22'0 0.0
2018-Jun-13 14:58N 51°54' E 004°22'0 0.0
2018-Jun-13 14:25N 51°54' E 004°22'0 0.0
2018-Jun-13 13:59N 51°54' E 004°22'0 0.0
2018-Jun-13 13:29N 51°54' E 004°22'0 0.0
2018-Jun-13 12:59N 51°54' E 004°22'0 0.1
2018-Jun-13 12:30N 51°54' E 004°22'2 3.0
2018-Jun-13 12:00N 51°54' E 004°19'5 9.3
2018-Jun-13 11:30N 51°56' E 004°13'5 9.6
2018-Jun-13 11:00N 51°59' E 004°06'510.9
2018-Jun-13 10:30N 51°60' E 003°58'510.6
2018-Jun-13 10:00N 51°60' E 003°49'4 8.6
2018-Jun-13 09:30N 52°02' E 003°43'4 6.7
2018-Jun-13 08:59N 52°04' E 003°39'4 7.4
2018-Jun-13 08:25N 52°06' E 003°33'2 4.5
2018-Jun-13 07:58N 52°07' E 003°30'3 5.5
2018-Jun-13 07:30N 52°08' E 003°26'5 7.8
2018-Jun-13 06:50N 52°12' E 003°19'42710.9
2018-Jun-11 15:46N 57°47' E 010°60'310.0
2018-Jun-11 15:30N 57°46' E 011°04'510.6
2018-Jun-11 15:00N 57°43' E 011°12'5 9.8
2018-Jun-11 14:30N 57°41' E 011°21'612.1
2018-Jun-11 13:59N 57°46' E 011°14'4011.6
2018-Jun-11 10:33N 58°22' E 010°43'511.2
2018-Jun-11 10:07N 58°27' E 010°42'311.2
2018-Jun-11 09:52N 58°30' E 010°41'511.7
2018-Jun-11 09:28N 58°34' E 010°39'612.1
2018-Jun-11 09:01N 58°40' E 010°37'612.1
2018-Jun-11 08:31N 58°46' E 010°35'612.1
2018-Jun-11 08:00N 58°52' E 010°34'612.6
2018-Jun-11 07:30N 58°58' E 010°35'612.3
2018-Jun-11 07:01N 59°04' E 010°38'3 6.7
2018-Jun-11 06:30N 59°07' E 010°36'510.6
2018-Jun-11 06:00N 59°12' E 010°37'611.2
2018-Jun-11 05:30N 59°18' E 010°34'2 4.6
2018-Jun-11 04:59N 59°20' E 010°31'0 0.0
2018-Jun-11 04:29N 59°20' E 010°31'0 0.0
2018-Jun-11 04:00N 59°20' E 010°31'0 0.0
2018-Jun-11 03:30N 59°20' E 010°31'0 0.0
2018-Jun-11 03:00N 59°20' E 010°31'0 0.0
2018-Jun-11 02:28N 59°20' E 010°31'0 0.0
2018-Jun-11 01:58N 59°20' E 010°31'0 0.0
2018-Jun-11 01:28N 59°20' E 010°31'0 0.0
2018-Jun-11 00:59N 59°20' E 010°31'0 0.0
2018-Jun-11 00:29N 59°20' E 010°31'0 0.0
2018-Jun-10 23:59N 59°20' E 010°31'0 0.0
2018-Jun-10 23:30N 59°20' E 010°31'0 0.0
2018-Jun-10 23:00N 59°20' E 010°31'0 0.0
2018-Jun-10 22:30N 59°20' E 010°31'0 0.0
2018-Jun-10 21:58N 59°20' E 010°31'0 0.0
2018-Jun-10 21:28N 59°20' E 010°31'0 0.0
2018-Jun-10 20:58N 59°20' E 010°31'0 0.0
2018-Jun-10 20:29N 59°20' E 010°31'0 0.0
2018-Jun-10 19:59N 59°20' E 010°31'0 0.0
2018-Jun-10 19:29N 59°20' E 010°31'0 0.0
2018-Jun-10 19:00N 59°20' E 010°31'0 0.0
2018-Jun-10 18:30N 59°20' E 010°31'0 0.0
2018-Jun-10 18:00N 59°20' E 010°31'0 0.0
2018-Jun-10 17:28N 59°20' E 010°31'0 0.0
2018-Jun-10 16:58N 59°20' E 010°31'0 0.0
2018-Jun-10 16:28N 59°20' E 010°31'0 0.0
2018-Jun-10 15:59N 59°20' E 010°31'0 0.0
2018-Jun-10 15:29N 59°20' E 010°31'0 0.0
2018-Jun-10 14:59N 59°20' E 010°31'0 0.0
2018-Jun-10 14:30N 59°20' E 010°31'0 0.0
2018-Jun-10 13:30N 59°20' E 010°31'0 0.0
2018-Jun-10 12:58N 59°20' E 010°31'0 0.0
2018-Jun-10 12:28N 59°20' E 010°31'0 0.0
2018-Jun-10 11:58N 59°20' E 010°31'0 0.0
2018-Jun-10 11:29N 59°20' E 010°31'0 0.0
2018-Jun-10 10:59N 59°20' E 010°31'0 0.0
2018-Jun-10 10:29N 59°20' E 010°31'0 0.0
2018-Jun-10 10:00N 59°20' E 010°31'0 0.0
2018-Jun-10 09:30N 59°20' E 010°31'0 0.0
2018-Jun-10 09:00N 59°20' E 010°31'0 0.0
2018-Jun-10 08:28N 59°20' E 010°31'0 0.0
2018-Jun-10 07:58N 59°20' E 010°31'0 0.0
2018-Jun-10 07:28N 59°20' E 010°31'0 0.0
2018-Jun-10 06:59N 59°20' E 010°31'0 0.0
2018-Jun-10 06:29N 59°20' E 010°31'0 0.0
2018-Jun-10 05:59N 59°20' E 010°31'0 0.0
2018-Jun-10 05:30N 59°20' E 010°31'0 0.0
2018-Jun-10 05:00N 59°20' E 010°31'0 0.0
2018-Jun-10 04:30N 59°20' E 010°31'0 0.0
2018-Jun-10 03:58N 59°20' E 010°31'0 0.0
2018-Jun-10 03:28N 59°20' E 010°31'0 0.0
2018-Jun-10 02:58N 59°20' E 010°31'1 1.7
2018-Jun-10 02:30N 59°20' E 010°31'0 0.1
2018-Jun-10 02:00N 59°20' E 010°31'0 0.0
2018-Jun-10 01:30N 59°20' E 010°31'0 0.1
2018-Jun-10 01:00N 59°20' E 010°31'0 0.0
2018-Jun-10 00:28N 59°20' E 010°31'0 0.1
2018-Jun-09 23:58N 59°21' E 010°31'0 0.1
2018-Jun-09 23:28N 59°21' E 010°31'0 0.1
2018-Jun-09 22:59N 59°21' E 010°31'0 0.1
2018-Jun-09 22:29N 59°21' E 010°31'0 0.0
2018-Jun-09 21:59N 59°21' E 010°31'0 0.0
2018-Jun-09 21:30N 59°21' E 010°31'0 0.0
2018-Jun-09 21:00N 59°21' E 010°31'0 0.0
2018-Jun-09 20:30N 59°21' E 010°31'0 0.0
2018-Jun-09 19:58N 59°21' E 010°31'0 0.0
2018-Jun-09 19:28N 59°21' E 010°31'0 0.0
2018-Jun-09 18:58N 59°21' E 010°31'0 0.0
2018-Jun-09 18:29N 59°21' E 010°31'0 0.0
2018-Jun-09 17:59N 59°21' E 010°31'0 0.0
2018-Jun-09 17:29N 59°21' E 010°31'0 0.0
2018-Jun-09 17:00N 59°21' E 010°31'0 0.1
2018-Jun-09 16:30N 59°21' E 010°31'0 0.0
2018-Jun-09 16:00N 59°21' E 010°31'0 0.1
2018-Jun-09 14:58N 59°21' E 010°31'0 0.0
2018-Jun-09 14:28N 59°21' E 010°31'0 0.0
2018-Jun-09 13:59N 59°21' E 010°31'0 0.0
2018-Jun-09 13:29N 59°21' E 010°31'0 0.0
2018-Jun-09 12:59N 59°21' E 010°31'0 0.0
2018-Jun-09 12:30N 59°21' E 010°31'0 0.0
2018-Jun-09 12:00N 59°21' E 010°31'0 0.0
2018-Jun-09 11:30N 59°21' E 010°31'0 0.0
2018-Jun-09 10:58N 59°21' E 010°31'0 0.2
2018-Jun-09 10:28N 59°20' E 010°31'0 0.1
2018-Jun-09 09:58N 59°20' E 010°31'0 0.0
2018-Jun-09 09:29N 59°20' E 010°31'0 0.1
2018-Jun-09 08:59N 59°20' E 010°31'0 0.1
2018-Jun-09 08:29N 59°20' E 010°31'0 0.1
2018-Jun-09 08:00N 59°20' E 010°31'0 0.0
2018-Jun-09 07:30N 59°20' E 010°31'0 0.0
2018-Jun-09 07:00N 59°20' E 010°31'0 0.0
2018-Jun-09 06:28N 59°20' E 010°31'0 0.0
2018-Jun-09 05:58N 59°20' E 010°31'0 0.0
2018-Jun-09 05:28N 59°20' E 010°31'0 0.0
2018-Jun-09 04:59N 59°20' E 010°31'0 0.1
2018-Jun-09 04:29N 59°20' E 010°31'0 0.1
2018-Jun-09 03:59N 59°21' E 010°31'0 0.1
2018-Jun-09 03:30N 59°21' E 010°31'0 0.1
2018-Jun-09 03:00N 59°21' E 010°31'0 0.0
2018-Jun-09 02:30N 59°21' E 010°31'0 0.0
2018-Jun-09 01:58N 59°21' E 010°31'0 0.0
2018-Jun-09 01:28N 59°21' E 010°31'0 0.0
2018-Jun-09 00:58N 59°21' E 010°31'0 0.0
2018-Jun-09 00:29N 59°21' E 010°31'0 0.0
2018-Jun-08 23:59N 59°21' E 010°31'0 0.0
2018-Jun-08 23:29N 59°21' E 010°31'0 0.0
2018-Jun-08 23:00N 59°21' E 010°31'  
Track history (hours):
 
Tides and Currents Weather Stations Pressure Air Temp Water Temp Dewpoint Dewpoint Depression Visibility Wind Speed Wind Dir Waves Ship Positions

Melody

Last reported at 2018-Jun-18 22:50 UTC. Time now 2018-Jun-20 07:07 UTC.
Position N 37°12' W 009°45'.

Length 183 m; draft 11.5 m.

Type: Tanker. MMSI: 538003113.

Date/timePositionNaut miles runAvg speedWind from/ knotsBaromVisibWave heightAir tempDewpointWater temp
2018-Jun-18 22:50N 37°12' W 009°45'413.0
2018-Jun-18 22:30N 37°17' W 009°46'713.0
2018-Jun-18 22:00N 37°23' W 009°48'613.0
2018-Jun-18 21:30N 37°29' W 009°50'712.4
2018-Jun-18 20:59N 37°36' W 009°52'612.6
2018-Jun-18 20:31N 37°41' W 009°55'612.5
2018-Jun-18 20:01N 37°46' W 009°59'611.6
2018-Jun-18 19:31N 37°52' W 009°57'612.4
2018-Jun-18 19:01N 37°58' W 009°59'612.7
2018-Jun-18 18:31N 38°04' W 010°00'612.4
2018-Jun-18 18:00N 38°11' W 010°02'612.3
2018-Jun-18 17:31N 38°16' W 010°04'612.1
2018-Jun-18 17:00N 38°22' W 010°06'612.1
2018-Jun-18 16:30N 38°28' W 010°07'612.6
2018-Jun-18 16:00N 38°34' W 010°09'612.4
2018-Jun-18 15:30N 38°40' W 010°11'612.6
2018-Jun-18 15:00N 38°47' W 010°11'612.7
2018-Jun-18 14:30N 38°53' W 010°12'612.3
2018-Jun-18 14:00N 38°59' W 010°12'612.4
2018-Jun-18 13:30N 39°05' W 010°12'612.6
2018-Jun-18 13:00N 39°12' W 010°12'612.6
2018-Jun-18 12:30N 39°18' W 010°11'612.7
2018-Jun-18 12:00N 39°25' W 010°11'612.7
2018-Jun-18 11:30N 39°31' W 010°12'612.3
2018-Jun-18 10:59N 39°37' W 010°12'712.5
2018-Jun-18 10:27N 39°44' W 010°11'712.4
2018-Jun-18 09:53N 39°51' W 010°12'612.7
2018-Jun-18 09:26N 39°57' W 010°12'  
2018-Jun-15 23:37N 49°48' W 003°25'212.4
2018-Jun-15 23:27N 49°49' W 003°23'512.1
2018-Jun-15 23:01N 49°52' W 003°15'611.4
2018-Jun-15 22:31N 49°55' W 003°08'510.7
2018-Jun-15 22:01N 49°58' W 003°01'510.0
2018-Jun-15 21:31N 49°59' W 002°54'5 9.6
2018-Jun-15 21:00N 50°01' W 002°46'5 9.4
2018-Jun-15 20:25N 50°02' W 002°38'8 9.4
2018-Jun-15 19:33N 50°04' W 002°26'2911.5
2018-Jun-15 17:03N 50°12' W 001°43'114.1
2018-Jun-15 16:58N 50°12' W 001°41'1414.9
2018-Jun-15 16:00N 50°16' W 001°19'1015.8
2018-Jun-15 15:23N 50°18' W 001°04'615.9
2018-Jun-15 15:00N 50°20' W 000°55'815.1
2018-Jun-15 14:30N 50°22' W 000°44'714.7
2018-Jun-15 14:00N 50°24' W 000°33'714.0
2018-Jun-15 13:31N 50°26' W 000°22'713.3
2018-Jun-15 13:00N 50°28' W 000°12'1312.3
2018-Jun-15 11:57N 50°31' E 000°07'611.6
2018-Jun-15 11:28N 50°33' E 000°16'511.1
2018-Jun-15 11:00N 50°34' E 000°23'510.7
2018-Jun-15 10:30N 50°36' E 000°32'510.5
2018-Jun-15 10:01N 50°38' E 000°39'611.1
2018-Jun-15 09:31N 50°41' E 000°46'611.9
2018-Jun-15 09:01N 50°44' E 000°54'712.9
2018-Jun-15 08:30N 50°48' E 001°03'713.9
2018-Jun-15 08:01N 50°52' E 001°12'815.2
2018-Jun-15 07:31N 50°57' E 001°21'815.8
2018-Jun-15 07:00N 51°03' E 001°29'815.2
2018-Jun-15 06:30N 51°08' E 001°37'714.1
2018-Jun-15 06:00N 51°13' E 001°45'713.2
2018-Jun-15 05:30N 51°19' E 001°50'612.3
2018-Jun-15 05:01N 51°24' E 001°55'611.5
2018-Jun-15 04:31N 51°29' E 001°60'611.1
2018-Jun-15 04:00N 51°34' E 002°05'510.9
2018-Jun-15 03:31N 51°38' E 002°11'510.3
2018-Jun-15 03:00N 51°42' E 002°17'510.5
2018-Jun-15 02:30N 51°45' E 002°23'510.6
2018-Jun-15 01:59N 51°49' E 002°29'510.7
2018-Jun-15 01:29N 51°53' E 002°35'511.1
2018-Jun-15 01:00N 51°57' E 002°42'611.6
2018-Jun-15 00:29N 52°01' E 002°48'611.3
2018-Jun-14 23:59N 52°02' E 002°57'712.4
2018-Jun-14 23:23N 52°03' E 003°09'512.7
2018-Jun-14 23:00N 52°03' E 003°17'712.7
2018-Jun-14 22:26N 52°03' E 003°29'612.9
2018-Jun-14 22:00N 52°04' E 003°38'612.4
2018-Jun-14 21:30N 52°04' E 003°48'4 7.8
2018-Jun-14 21:00N 52°03' E 003°53'5 9.4
2018-Jun-14 20:30N 52°01' E 004°00'611.4
2018-Jun-14 20:00N 51°58' E 004°09'611.5
2018-Jun-14 19:30N 51°54' E 004°16'4 7.0
2018-Jun-14 18:59N 51°54' E 004°22'0 0.0
2018-Jun-14 18:29N 51°54' E 004°22'0 0.0
2018-Jun-14 17:59N 51°54' E 004°22'0 0.0
2018-Jun-14 17:30N 51°54' E 004°22'0 0.0
2018-Jun-14 17:00N 51°54' E 004°22'0 0.0
2018-Jun-14 16:30N 51°54' E 004°22'0 0.0
2018-Jun-14 16:00N 51°54' E 004°22'0 0.0
2018-Jun-14 15:28N 51°54' E 004°22'0 0.0
2018-Jun-14 14:58N 51°54' E 004°22'0 0.0
2018-Jun-14 14:28N 51°54' E 004°22'0 0.0
2018-Jun-14 13:58N 51°54' E 004°22'0 0.0
2018-Jun-14 13:29N 51°54' E 004°22'0 0.0
2018-Jun-14 12:59N 51°54' E 004°22'0 0.0
2018-Jun-14 12:29N 51°54' E 004°22'0 0.0
2018-Jun-14 11:59N 51°54' E 004°22'0 0.0
2018-Jun-14 11:30N 51°54' E 004°22'0 0.0
2018-Jun-14 11:00N 51°54' E 004°22'0 0.0
2018-Jun-14 10:30N 51°54' E 004°22'0 0.0
2018-Jun-14 10:00N 51°54' E 004°22'0 0.0
2018-Jun-14 09:28N 51°54' E 004°22'0 0.0
2018-Jun-14 08:58N 51°54' E 004°22'0 0.0
2018-Jun-14 08:28N 51°54' E 004°22'0 0.0
2018-Jun-14 07:58N 51°54' E 004°22'0 0.0
2018-Jun-14 07:29N 51°54' E 004°22'0 0.0
2018-Jun-14 06:59N 51°54' E 004°22'0 0.0
2018-Jun-14 06:29N 51°54' E 004°22'0 0.0
2018-Jun-14 05:59N 51°54' E 004°22'0 0.0
2018-Jun-14 05:30N 51°54' E 004°22'0 0.0
2018-Jun-14 05:00N 51°54' E 004°22'0 0.0
2018-Jun-14 04:30N 51°54' E 004°22'0 0.0
2018-Jun-14 04:00N 51°54' E 004°22'0 0.0
2018-Jun-14 03:30N 51°54' E 004°22'0 0.0
2018-Jun-14 02:58N 51°54' E 004°22'0 0.0
2018-Jun-14 02:28N 51°54' E 004°22'0 0.0
2018-Jun-14 01:58N 51°54' E 004°22'0 0.0
2018-Jun-14 01:29N 51°54' E 004°22'0 0.0
2018-Jun-14 00:59N 51°54' E 004°22'0 0.0
2018-Jun-14 00:29N 51°54' E 004°22'0 0.0
2018-Jun-13 23:56N 51°54' E 004°22'0 0.0
2018-Jun-13 23:30N 51°54' E 004°22'0 0.0
2018-Jun-13 23:00N 51°54' E 004°22'0 0.0
2018-Jun-13 22:30N 51°54' E 004°22'0 0.0
2018-Jun-13 22:00N 51°54' E 004°22'0 0.0
2018-Jun-13 21:28N 51°54' E 004°22'0 0.0
2018-Jun-13 20:58N 51°54' E 004°22'0 0.0
2018-Jun-13 20:28N 51°54' E 004°22'0 0.0
2018-Jun-13 19:58N 51°54' E 004°22'0 0.0
2018-Jun-13 19:29N 51°54' E 004°22'0 0.0
2018-Jun-13 18:59N 51°54' E 004°22'0 0.0
2018-Jun-13 18:29N 51°54' E 004°22'0 0.0
2018-Jun-13 18:00N 51°54' E 004°22'0 0.0
2018-Jun-13 17:30N 51°54' E 004°22'0 0.0
2018-Jun-13 17:00N 51°54' E 004°22'0 0.0
2018-Jun-13 16:30N 51°54' E 004°22'0 0.0
2018-Jun-13 15:58N 51°54' E 004°22'0 0.0
2018-Jun-13 15:25N 51°54' E 004°22'0 0.0
2018-Jun-13 14:58N 51°54' E 004°22'0 0.0
2018-Jun-13 14:25N 51°54' E 004°22'0 0.0
2018-Jun-13 13:59N 51°54' E 004°22'0 0.0
2018-Jun-13 13:29N 51°54' E 004°22'0 0.0
2018-Jun-13 12:59N 51°54' E 004°22'0 0.1
2018-Jun-13 12:30N 51°54' E 004°22'2 3.0
2018-Jun-13 12:00N 51°54' E 004°19'5 9.3
2018-Jun-13 11:30N 51°56' E 004°13'5 9.6
2018-Jun-13 11:00N 51°59' E 004°06'510.9
2018-Jun-13 10:30N 51°60' E 003°58'510.6
2018-Jun-13 10:00N 51°60' E 003°49'4 8.6
2018-Jun-13 09:30N 52°02' E 003°43'4 6.7
2018-Jun-13 08:59N 52°04' E 003°39'4 7.4
2018-Jun-13 08:25N 52°06' E 003°33'2 4.5
2018-Jun-13 07:58N 52°07' E 003°30'3 5.5
2018-Jun-13 07:30N 52°08' E 003°26'5 7.8
2018-Jun-13 06:50N 52°12' E 003°19'42710.9
2018-Jun-11 15:46N 57°47' E 010°60'310.0
2018-Jun-11 15:30N 57°46' E 011°04'510.6
2018-Jun-11 15:00N 57°43' E 011°12'5 9.8
2018-Jun-11 14:30N 57°41' E 011°21'612.1
2018-Jun-11 13:59N 57°46' E 011°14'4011.6
2018-Jun-11 10:33N 58°22' E 010°43'511.2
2018-Jun-11 10:07N 58°27' E 010°42'311.2
2018-Jun-11 09:52N 58°30' E 010°41'511.7
2018-Jun-11 09:28N 58°34' E 010°39'612.1
2018-Jun-11 09:01N 58°40' E 010°37'612.1
2018-Jun-11 08:31N 58°46' E 010°35'612.1
2018-Jun-11 08:00N 58°52' E 010°34'612.6
2018-Jun-11 07:30N 58°58' E 010°35'612.3
2018-Jun-11 07:01N 59°04' E 010°38'3 6.7
2018-Jun-11 06:30N 59°07' E 010°36'510.6
2018-Jun-11 06:00N 59°12' E 010°37'611.2
2018-Jun-11 05:30N 59°18' E 010°34'2 4.6
2018-Jun-11 04:59N 59°20' E 010°31'0 0.0
2018-Jun-11 04:29N 59°20' E 010°31'0 0.0
2018-Jun-11 04:00N 59°20' E 010°31'0 0.0
2018-Jun-11 03:30N 59°20' E 010°31'0 0.0
2018-Jun-11 03:00N 59°20' E 010°31'0 0.0
2018-Jun-11 02:28N 59°20' E 010°31'0 0.0
2018-Jun-11 01:58N 59°20' E 010°31'0 0.0
2018-Jun-11 01:28N 59°20' E 010°31'0 0.0
2018-Jun-11 00:59N 59°20' E 010°31'0 0.0
2018-Jun-11 00:29N 59°20' E 010°31'0 0.0
2018-Jun-10 23:59N 59°20' E 010°31'0 0.0
2018-Jun-10 23:30N 59°20' E 010°31'0 0.0
2018-Jun-10 23:00N 59°20' E 010°31'0 0.0
2018-Jun-10 22:30N 59°20' E 010°31'0 0.0
2018-Jun-10 21:58N 59°20' E 010°31'0 0.0
2018-Jun-10 21:28N 59°20' E 010°31'0 0.0
2018-Jun-10 20:58N 59°20' E 010°31'0 0.0
2018-Jun-10 20:29N 59°20' E 010°31'0 0.0
2018-Jun-10 19:59N 59°20' E 010°31'0 0.0
2018-Jun-10 19:29N 59°20' E 010°31'0 0.0
2018-Jun-10 19:00N 59°20' E 010°31'0 0.0
2018-Jun-10 18:30N 59°20' E 010°31'0 0.0
2018-Jun-10 18:00N 59°20' E 010°31'0 0.0
2018-Jun-10 17:28N 59°20' E 010°31'0 0.0
2018-Jun-10 16:58N 59°20' E 010°31'0 0.0
2018-Jun-10 16:28N 59°20' E 010°31'0 0.0
2018-Jun-10 15:59N 59°20' E 010°31'0 0.0
2018-Jun-10 15:29N 59°20' E 010°31'0 0.0
2018-Jun-10 14:59N 59°20' E 010°31'0 0.0
2018-Jun-10 14:30N 59°20' E 010°31'0 0.0
2018-Jun-10 13:30N 59°20' E 010°31'0 0.0
2018-Jun-10 12:58N 59°20' E 010°31'0 0.0
2018-Jun-10 12:28N 59°20' E 010°31'0 0.0
2018-Jun-10 11:58N 59°20' E 010°31'0 0.0
2018-Jun-10 11:29N 59°20' E 010°31'0 0.0
2018-Jun-10 10:59N 59°20' E 010°31'0 0.0
2018-Jun-10 10:29N 59°20' E 010°31'0 0.0
2018-Jun-10 10:00N 59°20' E 010°31'0 0.0
2018-Jun-10 09:30N 59°20' E 010°31'0 0.0
2018-Jun-10 09:00N 59°20' E 010°31'0 0.0
2018-Jun-10 08:28N 59°20' E 010°31'0 0.0
2018-Jun-10 07:58N 59°20' E 010°31'0 0.0
2018-Jun-10 07:28N 59°20' E 010°31'0 0.0
2018-Jun-10 06:59N 59°20' E 010°31'0 0.0
2018-Jun-10 06:29N 59°20' E 010°31'0 0.0
2018-Jun-10 05:59N 59°20' E 010°31'0 0.0
2018-Jun-10 05:30N 59°20' E 010°31'0 0.0
2018-Jun-10 05:00N 59°20' E 010°31'0 0.0
2018-Jun-10 04:30N 59°20' E 010°31'0 0.0
2018-Jun-10 03:58N 59°20' E 010°31'0 0.0
2018-Jun-10 03:28N 59°20' E 010°31'0 0.0
2018-Jun-10 02:58N 59°20' E 010°31'1 1.7
2018-Jun-10 02:30N 59°20' E 010°31'0 0.1
2018-Jun-10 02:00N 59°20' E 010°31'0 0.0
2018-Jun-10 01:30N 59°20' E 010°31'0 0.1
2018-Jun-10 01:00N 59°20' E 010°31'0 0.0
2018-Jun-10 00:28N 59°20' E 010°31'0 0.1
2018-Jun-09 23:58N 59°21' E 010°31'0 0.1
2018-Jun-09 23:28N 59°21' E 010°31'0 0.1
2018-Jun-09 22:59N 59°21' E 010°31'0 0.1
2018-Jun-09 22:29N 59°21' E 010°31'0 0.0
2018-Jun-09 21:59N 59°21' E 010°31'0 0.0
2018-Jun-09 21:30N 59°21' E 010°31'0 0.0
2018-Jun-09 21:00N 59°21' E 010°31'0 0.0
2018-Jun-09 20:30N 59°21' E 010°31'0 0.0
2018-Jun-09 19:58N 59°21' E 010°31'0 0.0
2018-Jun-09 19:28N 59°21' E 010°31'0 0.0
2018-Jun-09 18:58N 59°21' E 010°31'0 0.0
2018-Jun-09 18:29N 59°21' E 010°31'0 0.0
2018-Jun-09 17:59N 59°21' E 010°31'0 0.0
2018-Jun-09 17:29N 59°21' E 010°31'0 0.0
2018-Jun-09 17:00N 59°21' E 010°31'0 0.1
2018-Jun-09 16:30N 59°21' E 010°31'0 0.0
2018-Jun-09 16:00N 59°21' E 010°31'0 0.1
2018-Jun-09 14:58N 59°21' E 010°31'0 0.0
2018-Jun-09 14:28N 59°21' E 010°31'0 0.0
2018-Jun-09 13:59N 59°21' E 010°31'0 0.0
2018-Jun-09 13:29N 59°21' E 010°31'0 0.0
2018-Jun-09 12:59N 59°21' E 010°31'0 0.0
2018-Jun-09 12:30N 59°21' E 010°31'0 0.0
2018-Jun-09 12:00N 59°21' E 010°31'0 0.0
2018-Jun-09 11:30N 59°21' E 010°31'0 0.0
2018-Jun-09 10:58N 59°21' E 010°31'0 0.2
2018-Jun-09 10:28N 59°20' E 010°31'0 0.1
2018-Jun-09 09:58N 59°20' E 010°31'0 0.0
2018-Jun-09 09:29N 59°20' E 010°31'0 0.1
2018-Jun-09 08:59N 59°20' E 010°31'0 0.1
2018-Jun-09 08:29N 59°20' E 010°31'0 0.1
2018-Jun-09 08:00N 59°20' E 010°31'0 0.0
2018-Jun-09 07:30N 59°20' E 010°31'0 0.0
2018-Jun-09 07:00N 59°20' E 010°31'0 0.0
2018-Jun-09 06:28N 59°20' E 010°31'0 0.0
2018-Jun-09 05:58N 59°20' E 010°31'0 0.0
2018-Jun-09 05:28N 59°20' E 010°31'0 0.0
2018-Jun-09 04:59N 59°20' E 010°31'0 0.1
2018-Jun-09 04:29N 59°20' E 010°31'0 0.1
2018-Jun-09 03:59N 59°21' E 010°31'0 0.1
2018-Jun-09 03:30N 59°21' E 010°31'0 0.1
2018-Jun-09 03:00N 59°21' E 010°31'0 0.0
2018-Jun-09 02:30N 59°21' E 010°31'0 0.0
2018-Jun-09 01:58N 59°21' E 010°31'0 0.0
2018-Jun-09 01:28N 59°21' E 010°31'0 0.0
2018-Jun-09 00:58N 59°21' E 010°31'0 0.0
2018-Jun-09 00:29N 59°21' E 010°31'0 0.0
2018-Jun-08 23:59N 59°21' E 010°31'0 0.0
2018-Jun-08 23:29N 59°21' E 010°31'0 0.0
2018-Jun-08 23:00N 59°21' E 010°31'  

Dump ship's entire track history